Danville, IL (61832)

6:31 AM CDT on September 02, 2015 (GMT -0500)
N Jackson | | Change Station
CLOSE
Current Station
Personal Weather Station
Location: Danville, IL
Elevation: 672 ft
Nearby Weather Stations

Elev 672 ft 40.17 °N, 87.63 °W | Updated 1 second ago

Clear
Clear
69.8 °F
Feels Like 69.8 °F
N
0.0
Wind Variable Wind from SSW
Gusts 0.0 mph

Today
High -- | Low -- °F
--% Chance of Precip.
Yesterday
High -- | Low -- °F
Precip. -- in
6:18 AM 7:20 PM
Waning Gibbous, 81% visible
Pressure 30.08 in
Visibility 3.0 miles
Clouds Clear
Dew Point 66 °F
Humidity 88%
Rainfall 0.00 in
Snow Depth Not available.
UV 0 out of 12
Pollen 10.40 out of 12
Air Quality Not available.
Flu Activity Not available.
METAR KDNV 021115Z AUTO 18003KT 3SM RA CLR 19/18 A3008 RMK AO2 T01850183
Pressure 30.08 in
Visibility 3.0 miles
Clouds Clear
Dew Point 66 °F
Humidity 88%
Rainfall 0.00 in
Snow Depth Not available.
UV 0 out of 12
Pollen 10.40 out of 12
Air Quality Not available.
Flu Activity Not available.
METAR KDNV 021115Z AUTO 18003KT 3SM RA CLR 19/18 A3008 RMK AO2 T01850183

10-Day Weather Forecast

×

Almanac

Astronomy

Sep. 02, 2015 Rise Set
Actual Time
Civil Twilight
Nautical Twilight
Astronomical Twilight
Moon
Length of Visible Light
Length of Day
Tomorrow will be .
, % of the Moon is Illuminated

Today's Extremes

State Highs State Lows

Community

WunderPhotos

Upload Photos

1,851,736 photos uploaded!

WunderBlogs® & News

Nearby

Air Quality

  Air Quality AQ Index Pollutant
Not available.

Snow Depth

Station Depth Elevation

Earthquake Activity

City Distance Mag. Time & Date
Minimum magnitude displayed is 2.5.

Coastal Water Temperatures

Place Temperature

Stations

Nearby Weather Stations

Station Location Temp. Windchill Dew Point Humidity Wind Precip. Elev Updated Type